sensor_id;sensor_type;location;lat;lon;timestamp;temperature;humidity
17697;DHT22;8967;47.984;7.842;2022-09-09T00:00:36;17.10;97.10
17697;DHT22;8967;47.984;7.842;2022-09-09T00:03:12;17.10;97.20
17697;DHT22;8967;47.984;7.842;2022-09-09T00:05:46;17.20;97.20
17697;DHT22;8967;47.984;7.842;2022-09-09T00:08:19;17.10;97.30
17697;DHT22;8967;47.984;7.842;2022-09-09T00:10:50;17.10;97.30
17697;DHT22;8967;47.984;7.842;2022-09-09T00:13:22;17.20;97.30
17697;DHT22;8967;47.984;7.842;2022-09-09T00:15:59;17.20;97.40
17697;DHT22;8967;47.984;7.842;2022-09-09T00:18:29;17.10;97.30
17697;DHT22;8967;47.984;7.842;2022-09-09T00:21:03;17.20;97.40
17697;DHT22;8967;47.984;7.842;2022-09-09T00:23:34;17.10;97.50
17697;DHT22;8967;47.984;7.842;2022-09-09T00:26:09;17.10;97.60
17697;DHT22;8967;47.984;7.842;2022-09-09T00:28:41;17.00;97.70
17697;DHT22;8967;47.984;7.842;2022-09-09T00:31:15;17.00;97.80
17697;DHT22;8967;47.984;7.842;2022-09-09T00:33:43;17.00;98.10
17697;DHT22;8967;47.984;7.842;2022-09-09T00:36:13;16.90;98.20
17697;DHT22;8967;47.984;7.842;2022-09-09T00:38:46;16.90;98.40
17697;DHT22;8967;47.984;7.842;2022-09-09T00:41:18;16.90;98.40
17697;DHT22;8967;47.984;7.842;2022-09-09T00:43:55;17.00;98.50
17697;DHT22;8967;47.984;7.842;2022-09-09T00:49:28;17.00;98.40
17697;DHT22;8967;47.984;7.842;2022-09-09T00:52:03;17.00;98.60
17697;DHT22;8967;47.984;7.842;2022-09-09T00:54:38;17.00;98.60
17697;DHT22;8967;47.984;7.842;2022-09-09T00:57:14;17.00;98.70
17697;DHT22;8967;47.984;7.842;2022-09-09T00:59:47;17.00;98.90
17697;DHT22;8967;47.984;7.842;2022-09-09T01:02:25;17.00;99.00
17697;DHT22;8967;47.984;7.842;2022-09-09T01:04:54;17.00;99.00
17697;DHT22;8967;47.984;7.842;2022-09-09T01:07:23;17.00;99.10
17697;DHT22;8967;47.984;7.842;2022-09-09T01:09:55;17.00;99.10
17697;DHT22;8967;47.984;7.842;2022-09-09T01:12:33;17.00;99.30
17697;DHT22;8967;47.984;7.842;2022-09-09T01:15:09;17.00;99.40
17697;DHT22;8967;47.984;7.842;2022-09-09T01:17:51;17.00;99.40
17697;DHT22;8967;47.984;7.842;2022-09-09T01:20:23;17.00;99.50
17697;DHT22;8967;47.984;7.842;2022-09-09T01:23:10;16.90;99.60
17697;DHT22;8967;47.984;7.842;2022-09-09T01:26:10;16.90;99.70
17697;DHT22;8967;47.984;7.842;2022-09-09T01:28:43;16.90;99.90
17697;DHT22;8967;47.984;7.842;2022-09-09T01:31:17;16.90;99.90
17697;DHT22;8967;47.984;7.842;2022-09-09T01:33:47;17.00;99.80
17697;DHT22;8967;47.984;7.842;2022-09-09T01:36:20;17.00;99.70
17697;DHT22;8967;47.984;7.842;2022-09-09T01:38:51;17.00;99.60
17697;DHT22;8967;47.984;7.842;2022-09-09T01:41:20;17.10;99.60
17697;DHT22;8967;47.984;7.842;2022-09-09T01:44:00;17.10;99.50
17697;DHT22;8967;47.984;7.842;2022-09-09T01:46:29;17.10;99.40
17697;DHT22;8967;47.984;7.842;2022-09-09T01:48:59;17.20;99.40
17697;DHT22;8967;47.984;7.842;2022-09-09T01:51:27;17.20;99.50
17697;DHT22;8967;47.984;7.842;2022-09-09T01:53:56;17.20;99.60
17697;DHT22;8967;47.984;7.842;2022-09-09T01:56:36;17.20;99.80
17697;DHT22;8967;47.984;7.842;2022-09-09T01:59:18;17.20;99.90
17697;DHT22;8967;47.984;7.842;2022-09-09T02:02:09;17.20;99.90
17697;DHT22;8967;47.984;7.842;2022-09-09T02:04:47;17.20;99.90
17697;DHT22;8967;47.984;7.842;2022-09-09T02:07:30;17.10;99.90
17697;DHT22;8967;47.984;7.842;2022-09-09T02:10:12;17.10;99.90
17697;DHT22;8967;47.984;7.842;2022-09-09T02:12:59;17.10;99.90
17697;DHT22;8967;47.984;7.842;2022-09-09T02:15:31;17.10;99.90
17697;DHT22;8967;47.984;7.842;2022-09-09T02:18:01;17.20;99.90
17697;DHT22;8967;47.984;7.842;2022-09-09T02:20:35;17.20;99.90
17697;DHT22;8967;47.984;7.842;2022-09-09T02:23:04;17.20;99.90
17697;DHT22;8967;47.984;7.842;2022-09-09T02:25:33;17.20;99.90
17697;DHT22;8967;47.984;7.842;2022-09-09T02:28:15;17.10;99.90
17697;DHT22;8967;47.984;7.842;2022-09-09T02:30:45;17.10;99.90
17697;DHT22;8967;47.984;7.842;2022-09-09T02:33:14;17.00;99.90
17697;DHT22;8967;47.984;7.842;2022-09-09T02:35:45;17.00;99.90
17697;DHT22;8967;47.984;7.842;2022-09-09T02:38:17;17.00;99.90
17697;DHT22;8967;47.984;7.842;2022-09-09T02:40:55;17.00;99.90
17697;DHT22;8967;47.984;7.842;2022-09-09T02:43:25;17.00;99.90
17697;DHT22;8967;47.984;7.842;2022-09-09T02:46:01;17.00;99.90
17697;DHT22;8967;47.984;7.842;2022-09-09T02:48:34;17.00;99.90
17697;DHT22;8967;47.984;7.842;2022-09-09T02:51:08;17.00;99.90
17697;DHT22;8967;47.984;7.842;2022-09-09T02:53:43;17.00;99.90
17697;DHT22;8967;47.984;7.842;2022-09-09T02:56:15;17.00;99.90
17697;DHT22;8967;47.984;7.842;2022-09-09T02:58:46;17.00;99.90
17697;DHT22;8967;47.984;7.842;2022-09-09T03:01:13;17.00;99.90
17697;DHT22;8967;47.984;7.842;2022-09-09T03:03:40;17.00;99.90
17697;DHT22;8967;47.984;7.842;2022-09-09T03:06:12;17.00;99.90
17697;DHT22;8967;47.984;7.842;2022-09-09T03:08:40;16.90;99.90
17697;DHT22;8967;47.984;7.842;2022-09-09T03:11:10;16.90;99.90
17697;DHT22;8967;47.984;7.842;2022-09-09T03:13:37;16.90;99.90
17697;DHT22;8967;47.984;7.842;2022-09-09T03:16:08;16.90;99.90
17697;DHT22;8967;47.984;7.842;2022-09-09T03:18:40;16.90;99.90
17697;DHT22;8967;47.984;7.842;2022-09-09T03:21:08;16.90;99.90
17697;DHT22;8967;47.984;7.842;2022-09-09T03:23:36;17.00;99.90
17697;DHT22;8967;47.984;7.842;2022-09-09T03:26:03;16.90;99.90
17697;DHT22;8967;47.984;7.842;2022-09-09T03:28:39;16.90;99.90
17697;DHT22;8967;47.984;7.842;2022-09-09T03:31:07;16.90;99.90
17697;DHT22;8967;47.984;7.842;2022-09-09T03:33:39;16.90;99.90
17697;DHT22;8967;47.984;7.842;2022-09-09T03:36:07;16.90;99.90
17697;DHT22;8967;47.984;7.842;2022-09-09T03:38:35;16.90;99.90
17697;DHT22;8967;47.984;7.842;2022-09-09T03:41:04;16.90;99.90
17697;DHT22;8967;47.984;7.842;2022-09-09T03:43:34;16.90;99.90
17697;DHT22;8967;47.984;7.842;2022-09-09T03:46:02;16.90;99.90
17697;DHT22;8967;47.984;7.842;2022-09-09T03:48:31;16.90;99.90
17697;DHT22;8967;47.984;7.842;2022-09-09T03:50:59;16.90;99.90
17697;DHT22;8967;47.984;7.842;2022-09-09T03:53:29;16.90;99.90
17697;DHT22;8967;47.984;7.842;2022-09-09T03:55:57;16.90;99.90
17697;DHT22;8967;47.984;7.842;2022-09-09T03:58:27;16.90;99.90
17697;DHT22;8967;47.984;7.842;2022-09-09T04:01:01;16.90;99.90
17697;DHT22;8967;47.984;7.842;2022-09-09T04:03:30;16.90;99.90
17697;DHT22;8967;47.984;7.842;2022-09-09T04:05:59;16.90;99.90
17697;DHT22;8967;47.984;7.842;2022-09-09T04:08:29;17.00;99.90
17697;DHT22;8967;47.984;7.842;2022-09-09T04:10:58;17.00;99.90
17697;DHT22;8967;47.984;7.842;2022-09-09T04:13:27;17.10;99.90
17697;DHT22;8967;47.984;7.842;2022-09-09T04:15:57;17.10;99.90
17697;DHT22;8967;47.984;7.842;2022-09-09T04:18:25;17.10;99.90
17697;DHT22;8967;47.984;7.842;2022-09-09T04:20:55;17.20;99.90
17697;DHT22;8967;47.984;7.842;2022-09-09T04:23:25;17.20;99.90
17697;DHT22;8967;47.984;7.842;2022-09-09T04:25:56;17.20;99.90
17697;DHT22;8967;47.984;7.842;2022-09-09T04:28:27;17.20;99.90
17697;DHT22;8967;47.984;7.842;2022-09-09T04:30:54;17.20;99.90
17697;DHT22;8967;47.984;7.842;2022-09-09T04:33:23;17.20;99.90
17697;DHT22;8967;47.984;7.842;2022-09-09T04:35:52;17.20;99.90
17697;DHT22;8967;47.984;7.842;2022-09-09T04:38:23;17.20;99.90
17697;DHT22;8967;47.984;7.842;2022-09-09T04:40:51;17.30;99.90
17697;DHT22;8967;47.984;7.842;2022-09-09T04:43:20;17.30;99.90
17697;DHT22;8967;47.984;7.842;2022-09-09T04:45:49;17.30;99.90
17697;DHT22;8967;47.984;7.842;2022-09-09T04:48:19;17.30;99.90
17697;DHT22;8967;47.984;7.842;2022-09-09T04:50:55;17.30;99.90
17697;DHT22;8967;47.984;7.842;2022-09-09T04:53:25;17.30;99.90
17697;DHT22;8967;47.984;7.842;2022-09-09T04:55:53;17.40;99.90
17697;DHT22;8967;47.984;7.842;2022-09-09T04:58:27;17.40;99.90
17697;DHT22;8967;47.984;7.842;2022-09-09T05:00:54;17.40;99.90
17697;DHT22;8967;47.984;7.842;2022-09-09T05:03:24;17.40;99.90
17697;DHT22;8967;47.984;7.842;2022-09-09T05:05:52;17.40;99.90
17697;DHT22;8967;47.984;7.842;2022-09-09T05:08:19;17.40;99.90
17697;DHT22;8967;47.984;7.842;2022-09-09T05:10:48;17.50;99.90
17697;DHT22;8967;47.984;7.842;2022-09-09T05:13:15;17.50;99.90
17697;DHT22;8967;47.984;7.842;2022-09-09T05:15:42;17.50;99.90
17697;DHT22;8967;47.984;7.842;2022-09-09T05:18:17;17.50;99.90
17697;DHT22;8967;47.984;7.842;2022-09-09T05:20:44;17.60;99.90
17697;DHT22;8967;47.984;7.842;2022-09-09T05:23:11;17.60;99.90
17697;DHT22;8967;47.984;7.842;2022-09-09T05:25:39;17.70;99.90
17697;DHT22;8967;47.984;7.842;2022-09-09T05:28:08;17.60;99.90
17697;DHT22;8967;47.984;7.842;2022-09-09T05:30:37;17.70;99.90
17697;DHT22;8967;47.984;7.842;2022-09-09T05:33:05;17.70;99.90
17697;DHT22;8967;47.984;7.842;2022-09-09T05:35:35;17.70;99.90
17697;DHT22;8967;47.984;7.842;2022-09-09T05:38:03;17.80;99.90
17697;DHT22;8967;47.984;7.842;2022-09-09T05:40:30;17.80;99.90
17697;DHT22;8967;47.984;7.842;2022-09-09T05:43:00;17.80;99.90
17697;DHT22;8967;47.984;7.842;2022-09-09T05:45:28;17.80;99.90
17697;DHT22;8967;47.984;7.842;2022-09-09T05:47:57;17.80;99.90
17697;DHT22;8967;47.984;7.842;2022-09-09T05:50:29;17.90;99.90
17697;DHT22;8967;47.984;7.842;2022-09-09T05:52:56;17.90;99.90
17697;DHT22;8967;47.984;7.842;2022-09-09T05:55:23;17.90;99.90
17697;DHT22;8967;47.984;7.842;2022-09-09T05:57:51;18.00;99.90
17697;DHT22;8967;47.984;7.842;2022-09-09T06:00:18;18.00;99.90
17697;DHT22;8967;47.984;7.842;2022-09-09T06:02:51;18.00;99.90
17697;DHT22;8967;47.984;7.842;2022-09-09T06:05:20;18.10;99.90
17697;DHT22;8967;47.984;7.842;2022-09-09T06:07:52;18.10;99.90
17697;DHT22;8967;47.984;7.842;2022-09-09T06:10:19;18.20;99.90
17697;DHT22;8967;47.984;7.842;2022-09-09T06:12:46;18.20;99.90
17697;DHT22;8967;47.984;7.842;2022-09-09T06:15:13;18.30;99.90
17697;DHT22;8967;47.984;7.842;2022-09-09T06:17:40;18.40;99.90
17697;DHT22;8967;47.984;7.842;2022-09-09T06:20:09;18.40;99.90
17697;DHT22;8967;47.984;7.842;2022-09-09T06:22:39;18.50;99.90
17697;DHT22;8967;47.984;7.842;2022-09-09T06:25:08;18.50;99.90
17697;DHT22;8967;47.984;7.842;2022-09-09T06:27:39;18.60;99.90
17697;DHT22;8967;47.984;7.842;2022-09-09T06:30:07;18.70;99.90
17697;DHT22;8967;47.984;7.842;2022-09-09T06:32:35;18.70;99.90
17697;DHT22;8967;47.984;7.842;2022-09-09T06:35:04;18.80;99.90
17697;DHT22;8967;47.984;7.842;2022-09-09T06:37:32;18.80;99.90
17697;DHT22;8967;47.984;7.842;2022-09-09T06:39:59;18.90;99.90
17697;DHT22;8967;47.984;7.842;2022-09-09T06:42:26;18.90;99.70
17697;DHT22;8967;47.984;7.842;2022-09-09T06:45:20;19.00;99.70
17697;DHT22;8967;47.984;7.842;2022-09-09T06:47:54;19.00;99.40
17697;DHT22;8967;47.984;7.842;2022-09-09T06:50:22;19.10;99.30
17697;DHT22;8967;47.984;7.842;2022-09-09T06:52:50;19.20;98.90
17697;DHT22;8967;47.984;7.842;2022-09-09T06:55:18;19.10;98.60
17697;DHT22;8967;47.984;7.842;2022-09-09T06:57:46;19.10;98.50
17697;DHT22;8967;47.984;7.842;2022-09-09T07:00:19;19.10;98.70
17697;DHT22;8967;47.984;7.842;2022-09-09T07:02:46;19.00;98.70
17697;DHT22;8967;47.984;7.842;2022-09-09T07:05:13;19.10;98.80
17697;DHT22;8967;47.984;7.842;2022-09-09T07:07:42;19.20;98.50
17697;DHT22;8967;47.984;7.842;2022-09-09T07:10:13;19.30;98.50
17697;DHT22;8967;47.984;7.842;2022-09-09T07:12:40;19.40;98.50
17697;DHT22;8967;47.984;7.842;2022-09-09T07:15:10;19.40;98.20
17697;DHT22;8967;47.984;7.842;2022-09-09T07:17:39;19.50;98.30
17697;DHT22;8967;47.984;7.842;2022-09-09T07:20:06;19.50;98.00
17697;DHT22;8967;47.984;7.842;2022-09-09T07:22:33;19.60;97.70
17697;DHT22;8967;47.984;7.842;2022-09-09T07:25:01;19.60;97.60
17697;DHT22;8967;47.984;7.842;2022-09-09T07:27:30;19.60;97.50
17697;DHT22;8967;47.984;7.842;2022-09-09T07:29:59;19.70;97.50
17697;DHT22;8967;47.984;7.842;2022-09-09T07:32:28;19.60;97.20
17697;DHT22;8967;47.984;7.842;2022-09-09T07:34:56;19.70;97.20
17697;DHT22;8967;47.984;7.842;2022-09-09T07:37:24;19.70;97.10
17697;DHT22;8967;47.984;7.842;2022-09-09T07:39:52;19.90;97.00
17697;DHT22;8967;47.984;7.842;2022-09-09T07:42:19;19.90;96.50
17697;DHT22;8967;47.984;7.842;2022-09-09T07:44:50;19.90;96.50
17697;DHT22;8967;47.984;7.842;2022-09-09T07:47:20;19.90;96.60
17697;DHT22;8967;47.984;7.842;2022-09-09T07:49:49;19.90;96.90
17697;DHT22;8967;47.984;7.842;2022-09-09T07:52:21;20.00;97.10
17697;DHT22;8967;47.984;7.842;2022-09-09T07:54:53;20.00;96.70
17697;DHT22;8967;47.984;7.842;2022-09-09T07:57:20;20.10;96.60
17697;DHT22;8967;47.984;7.842;2022-09-09T07:59:47;20.20;96.40
17697;DHT22;8967;47.984;7.842;2022-09-09T08:02:18;20.30;95.90
17697;DHT22;8967;47.984;7.842;2022-09-09T08:04:45;20.30;95.70
17697;DHT22;8967;47.984;7.842;2022-09-09T08:07:13;20.30;95.40
17697;DHT22;8967;47.984;7.842;2022-09-09T08:09:46;20.30;95.30
17697;DHT22;8967;47.984;7.842;2022-09-09T08:12:19;20.30;95.50
17697;DHT22;8967;47.984;7.842;2022-09-09T08:14:46;20.40;95.50
17697;DHT22;8967;47.984;7.842;2022-09-09T08:17:15;20.40;95.50
17697;DHT22;8967;47.984;7.842;2022-09-09T08:19:43;20.40;95.30
17697;DHT22;8967;47.984;7.842;2022-09-09T08:22:17;20.50;95.00
17697;DHT22;8967;47.984;7.842;2022-09-09T08:24:45;20.50;95.10
17697;DHT22;8967;47.984;7.842;2022-09-09T08:27:12;20.60;95.00
17697;DHT22;8967;47.984;7.842;2022-09-09T08:29:39;20.60;94.90
17697;DHT22;8967;47.984;7.842;2022-09-09T08:32:06;20.60;94.60
17697;DHT22;8967;47.984;7.842;2022-09-09T08:34:37;20.60;94.60
17697;DHT22;8967;47.984;7.842;2022-09-09T08:37:08;20.60;94.40
17697;DHT22;8967;47.984;7.842;2022-09-09T08:39:38;20.70;94.70
17697;DHT22;8967;47.984;7.842;2022-09-09T08:42:23;20.70;94.60
17697;DHT22;8967;47.984;7.842;2022-09-09T08:45:14;20.70;94.80
17697;DHT22;8967;47.984;7.842;2022-09-09T08:47:55;20.70;94.70
17697;DHT22;8967;47.984;7.842;2022-09-09T08:50:29;20.70;94.70
17697;DHT22;8967;47.984;7.842;2022-09-09T08:53:14;20.80;93.70
17697;DHT22;8967;47.984;7.842;2022-09-09T08:55:46;21.00;93.50
17697;DHT22;8967;47.984;7.842;2022-09-09T08:58:18;21.10;93.50
17697;DHT22;8967;47.984;7.842;2022-09-09T09:01:02;21.20;93.00
17697;DHT22;8967;47.984;7.842;2022-09-09T09:03:47;21.30;92.90
17697;DHT22;8967;47.984;7.842;2022-09-09T09:06:30;21.40;92.70
17697;DHT22;8967;47.984;7.842;2022-09-09T09:09:08;21.40;92.10
17697;DHT22;8967;47.984;7.842;2022-09-09T09:11:46;21.50;92.00
17697;DHT22;8967;47.984;7.842;2022-09-09T09:14:18;21.50;91.90
17697;DHT22;8967;47.984;7.842;2022-09-09T09:16:52;21.60;91.60
17697;DHT22;8967;47.984;7.842;2022-09-09T09:19:21;21.70;91.60
17697;DHT22;8967;47.984;7.842;2022-09-09T09:21:57;21.70;91.20
17697;DHT22;8967;47.984;7.842;2022-09-09T09:24:31;21.80;91.30
17697;DHT22;8967;47.984;7.842;2022-09-09T09:27:12;21.90;90.80
17697;DHT22;8967;47.984;7.842;2022-09-09T09:29:44;21.90;90.00
17697;DHT22;8967;47.984;7.842;2022-09-09T09:32:16;22.00;89.00
17697;DHT22;8967;47.984;7.842;2022-09-09T09:34:49;22.00;87.70
17697;DHT22;8967;47.984;7.842;2022-09-09T09:37:26;21.90;86.60
17697;DHT22;8967;47.984;7.842;2022-09-09T09:39:55;21.90;84.90
17697;DHT22;8967;47.984;7.842;2022-09-09T09:42:22;21.90;85.80
17697;DHT22;8967;47.984;7.842;2022-09-09T09:44:53;21.80;85.40
17697;DHT22;8967;47.984;7.842;2022-09-09T09:47:22;21.80;85.10
17697;DHT22;8967;47.984;7.842;2022-09-09T09:50:17;21.80;83.70
17697;DHT22;8967;47.984;7.842;2022-09-09T09:52:54;21.70;83.80
17697;DHT22;8967;47.984;7.842;2022-09-09T09:55:29;21.60;83.50
17697;DHT22;8967;47.984;7.842;2022-09-09T09:58:04;21.50;83.50
17697;DHT22;8967;47.984;7.842;2022-09-09T10:00:32;21.50;83.30
17697;DHT22;8967;47.984;7.842;2022-09-09T10:03:23;21.50;83.30
17697;DHT22;8967;47.984;7.842;2022-09-09T10:05:53;21.60;83.80
17697;DHT22;8967;47.984;7.842;2022-09-09T10:08:24;21.70;83.40
17697;DHT22;8967;47.984;7.842;2022-09-09T10:11:05;21.80;82.60
17697;DHT22;8967;47.984;7.842;2022-09-09T10:13:42;21.90;82.60
17697;DHT22;8967;47.984;7.842;2022-09-09T10:16:37;22.10;81.50
17697;DHT22;8967;47.984;7.842;2022-09-09T10:19:10;22.20;80.80
17697;DHT22;8967;47.984;7.842;2022-09-09T10:22:11;22.40;79.20
17697;DHT22;8967;47.984;7.842;2022-09-09T10:25:11;22.50;77.90
17697;DHT22;8967;47.984;7.842;2022-09-09T10:27:49;22.70;77.70
17697;DHT22;8967;47.984;7.842;2022-09-09T10:30:21;22.80;77.30
17697;DHT22;8967;47.984;7.842;2022-09-09T10:32:51;22.90;75.90
17697;DHT22;8967;47.984;7.842;2022-09-09T10:35:30;23.00;74.20
17697;DHT22;8967;47.984;7.842;2022-09-09T10:38:16;23.00;73.80
17697;DHT22;8967;47.984;7.842;2022-09-09T10:40:57;22.90;75.50
17697;DHT22;8967;47.984;7.842;2022-09-09T10:43:39;22.80;77.00
17697;DHT22;8967;47.984;7.842;2022-09-09T10:46:14;22.50;78.30
17697;DHT22;8967;47.984;7.842;2022-09-09T10:48:58;22.40;80.90
17697;DHT22;8967;47.984;7.842;2022-09-09T10:51:36;22.20;82.20
17697;DHT22;8967;47.984;7.842;2022-09-09T10:54:25;22.10;83.00
17697;DHT22;8967;47.984;7.842;2022-09-09T10:57:00;22.00;83.30
17697;DHT22;8967;47.984;7.842;2022-09-09T10:59:33;22.10;81.80
17697;DHT22;8967;47.984;7.842;2022-09-09T11:02:07;22.10;80.10
17697;DHT22;8967;47.984;7.842;2022-09-09T11:04:41;22.10;79.60
17697;DHT22;8967;47.984;7.842;2022-09-09T11:07:12;22.00;80.50
17697;DHT22;8967;47.984;7.842;2022-09-09T11:09:42;22.10;82.00
17697;DHT22;8967;47.984;7.842;2022-09-09T11:12:17;22.20;82.40
17697;DHT22;8967;47.984;7.842;2022-09-09T11:14:48;22.20;82.40
17697;DHT22;8967;47.984;7.842;2022-09-09T11:17:20;22.30;81.80
17697;DHT22;8967;47.984;7.842;2022-09-09T11:19:48;22.30;80.50
17697;DHT22;8967;47.984;7.842;2022-09-09T11:22:21;22.30;79.50
17697;DHT22;8967;47.984;7.842;2022-09-09T11:24:58;22.30;78.50
17697;DHT22;8967;47.984;7.842;2022-09-09T11:27:32;22.30;78.80
17697;DHT22;8967;47.984;7.842;2022-09-09T11:30:19;22.40;79.90
17697;DHT22;8967;47.984;7.842;2022-09-09T11:33:06;22.50;79.60
17697;DHT22;8967;47.984;7.842;2022-09-09T11:35:45;22.50;79.60
17697;DHT22;8967;47.984;7.842;2022-09-09T11:38:19;22.70;77.70
17697;DHT22;8967;47.984;7.842;2022-09-09T11:40:55;22.80;77.70
17697;DHT22;8967;47.984;7.842;2022-09-09T11:43:28;22.80;77.50
17697;DHT22;8967;47.984;7.842;2022-09-09T11:45:58;22.70;77.70
17697;DHT22;8967;47.984;7.842;2022-09-09T11:48:30;22.60;78.70
17697;DHT22;8967;47.984;7.842;2022-09-09T11:50:59;22.60;79.00
17697;DHT22;8967;47.984;7.842;2022-09-09T11:53:26;22.60;78.90
17697;DHT22;8967;47.984;7.842;2022-09-09T11:56:27;22.70;79.00
17697;DHT22;8967;47.984;7.842;2022-09-09T11:58:58;22.70;78.10
17697;DHT22;8967;47.984;7.842;2022-09-09T12:01:37;22.70;77.50
17697;DHT22;8967;47.984;7.842;2022-09-09T12:04:27;22.60;78.50
17697;DHT22;8967;47.984;7.842;2022-09-09T12:06:58;22.70;77.90
17697;DHT22;8967;47.984;7.842;2022-09-09T12:09:33;22.90;76.30
17697;DHT22;8967;47.984;7.842;2022-09-09T12:12:21;23.00;72.90
17697;DHT22;8967;47.984;7.842;2022-09-09T12:17:43;23.00;68.40
17697;DHT22;8967;47.984;7.842;2022-09-09T12:20:14;23.00;67.20
17697;DHT22;8967;47.984;7.842;2022-09-09T12:23:05;23.10;67.20
17697;DHT22;8967;47.984;7.842;2022-09-09T12:25:48;23.10;67.50
17697;DHT22;8967;47.984;7.842;2022-09-09T12:28:18;23.10;67.50
17697;DHT22;8967;47.984;7.842;2022-09-09T12:30:53;23.00;68.30
17697;DHT22;8967;47.984;7.842;2022-09-09T12:33:22;22.90;69.00
17697;DHT22;8967;47.984;7.842;2022-09-09T12:35:53;22.90;68.60
17697;DHT22;8967;47.984;7.842;2022-09-09T12:38:29;22.80;69.20
17697;DHT22;8967;47.984;7.842;2022-09-09T12:40:58;22.80;70.00
17697;DHT22;8967;47.984;7.842;2022-09-09T12:43:27;22.80;69.70
17697;DHT22;8967;47.984;7.842;2022-09-09T12:45:58;22.90;70.10
17697;DHT22;8967;47.984;7.842;2022-09-09T12:48:33;22.90;69.80
17697;DHT22;8967;47.984;7.842;2022-09-09T12:51:02;22.80;69.70
17697;DHT22;8967;47.984;7.842;2022-09-09T12:53:33;22.90;70.10
17697;DHT22;8967;47.984;7.842;2022-09-09T12:56:03;22.90;69.70
17697;DHT22;8967;47.984;7.842;2022-09-09T12:58:31;22.80;70.50
17697;DHT22;8967;47.984;7.842;2022-09-09T13:01:02;22.80;70.30
17697;DHT22;8967;47.984;7.842;2022-09-09T13:03:31;22.80;70.50
17697;DHT22;8967;47.984;7.842;2022-09-09T13:06:11;22.80;70.60
17697;DHT22;8967;47.984;7.842;2022-09-09T13:08:39;22.80;70.40
17697;DHT22;8967;47.984;7.842;2022-09-09T13:11:10;22.80;70.90
17697;DHT22;8967;47.984;7.842;2022-09-09T13:13:41;22.80;70.90
17697;DHT22;8967;47.984;7.842;2022-09-09T13:16:20;22.60;71.10
17697;DHT22;8967;47.984;7.842;2022-09-09T13:18:48;22.60;71.80
17697;DHT22;8967;47.984;7.842;2022-09-09T13:21:16;22.50;71.80
17697;DHT22;8967;47.984;7.842;2022-09-09T13:23:48;22.50;71.30
17697;DHT22;8967;47.984;7.842;2022-09-09T13:26:24;22.40;71.20
17697;DHT22;8967;47.984;7.842;2022-09-09T13:28:53;22.30;71.10
17697;DHT22;8967;47.984;7.842;2022-09-09T13:31:23;22.20;70.50
17697;DHT22;8967;47.984;7.842;2022-09-09T13:33:53;22.20;69.90
17697;DHT22;8967;47.984;7.842;2022-09-09T13:36:29;22.10;70.60
17697;DHT22;8967;47.984;7.842;2022-09-09T13:38:57;22.10;70.90
17697;DHT22;8967;47.984;7.842;2022-09-09T13:41:29;22.00;73.10
17697;DHT22;8967;47.984;7.842;2022-09-09T13:43:57;22.00;75.10
17697;DHT22;8967;47.984;7.842;2022-09-09T13:46:31;21.80;76.20
17697;DHT22;8967;47.984;7.842;2022-09-09T13:49:01;21.80;77.60
17697;DHT22;8967;47.984;7.842;2022-09-09T13:51:34;21.90;77.00
17697;DHT22;8967;47.984;7.842;2022-09-09T13:54:03;21.90;76.60
17697;DHT22;8967;47.984;7.842;2022-09-09T13:56:30;21.80;75.90
17697;DHT22;8967;47.984;7.842;2022-09-09T13:58:58;21.70;75.90
17697;DHT22;8967;47.984;7.842;2022-09-09T14:01:26;21.70;75.90
17697;DHT22;8967;47.984;7.842;2022-09-09T14:03:54;21.70;75.70
17697;DHT22;8967;47.984;7.842;2022-09-09T14:06:23;21.70;75.70
17697;DHT22;8967;47.984;7.842;2022-09-09T14:08:50;21.60;76.10
17697;DHT22;8967;47.984;7.842;2022-09-09T14:11:18;21.60;76.20
17697;DHT22;8967;47.984;7.842;2022-09-09T14:13:44;21.50;76.70
17697;DHT22;8967;47.984;7.842;2022-09-09T14:16:12;21.40;77.20
17697;DHT22;8967;47.984;7.842;2022-09-09T14:18:40;21.30;77.70
17697;DHT22;8967;47.984;7.842;2022-09-09T14:21:07;21.30;78.60
17697;DHT22;8967;47.984;7.842;2022-09-09T14:23:35;21.30;78.60
17697;DHT22;8967;47.984;7.842;2022-09-09T14:26:05;21.30;78.80
17697;DHT22;8967;47.984;7.842;2022-09-09T14:28:33;21.40;78.60
17697;DHT22;8967;47.984;7.842;2022-09-09T14:31:03;21.50;78.00
17697;DHT22;8967;47.984;7.842;2022-09-09T14:33:31;21.60;77.60
17697;DHT22;8967;47.984;7.842;2022-09-09T14:36:03;21.50;77.80
17697;DHT22;8967;47.984;7.842;2022-09-09T14:38:33;21.50;77.90
17697;DHT22;8967;47.984;7.842;2022-09-09T14:41:04;21.60;78.50
17697;DHT22;8967;47.984;7.842;2022-09-09T14:43:31;21.70;78.10
17697;DHT22;8967;47.984;7.842;2022-09-09T14:46:04;21.70;77.40
17697;DHT22;8967;47.984;7.842;2022-09-09T14:48:32;21.70;76.70
17697;DHT22;8967;47.984;7.842;2022-09-09T14:51:06;21.70;76.80
17697;DHT22;8967;47.984;7.842;2022-09-09T14:53:34;21.60;77.20
17697;DHT22;8967;47.984;7.842;2022-09-09T14:56:05;21.50;77.90
17697;DHT22;8967;47.984;7.842;2022-09-09T14:58:33;21.50;79.00
17697;DHT22;8967;47.984;7.842;2022-09-09T15:01:04;21.50;79.20
17697;DHT22;8967;47.984;7.842;2022-09-09T15:03:34;21.60;79.30
17697;DHT22;8967;47.984;7.842;2022-09-09T15:06:06;21.60;79.50
17697;DHT22;8967;47.984;7.842;2022-09-09T15:08:36;21.60;79.80
17697;DHT22;8967;47.984;7.842;2022-09-09T15:11:05;21.70;80.20
17697;DHT22;8967;47.984;7.842;2022-09-09T15:13:33;21.70;78.00
17697;DHT22;8967;47.984;7.842;2022-09-09T15:16:04;21.70;77.20
17697;DHT22;8967;47.984;7.842;2022-09-09T15:18:32;21.60;76.40
17697;DHT22;8967;47.984;7.842;2022-09-09T15:20:59;21.60;76.90
17697;DHT22;8967;47.984;7.842;2022-09-09T15:23:28;21.50;77.90
17697;DHT22;8967;47.984;7.842;2022-09-09T15:25:57;21.60;79.00
17697;DHT22;8967;47.984;7.842;2022-09-09T15:28:24;21.50;79.20
17697;DHT22;8967;47.984;7.842;2022-09-09T15:30:52;21.50;79.20
17697;DHT22;8967;47.984;7.842;2022-09-09T15:33:20;21.40;80.00
17697;DHT22;8967;47.984;7.842;2022-09-09T15:35:47;21.30;80.40
17697;DHT22;8967;47.984;7.842;2022-09-09T15:38:15;21.20;81.10
17697;DHT22;8967;47.984;7.842;2022-09-09T15:40:44;21.10;80.90
17697;DHT22;8967;47.984;7.842;2022-09-09T15:43:12;21.00;81.30
17697;DHT22;8967;47.984;7.842;2022-09-09T15:45:39;20.90;81.60
17697;DHT22;8967;47.984;7.842;2022-09-09T15:48:06;20.90;82.40
17697;DHT22;8967;47.984;7.842;2022-09-09T15:50:33;20.90;83.30
17697;DHT22;8967;47.984;7.842;2022-09-09T15:53:00;20.80;83.30
17697;DHT22;8967;47.984;7.842;2022-09-09T15:55:27;20.70;83.70
17697;DHT22;8967;47.984;7.842;2022-09-09T15:57:55;20.70;84.10
17697;DHT22;8967;47.984;7.842;2022-09-09T16:00:23;20.60;83.40
17697;DHT22;8967;47.984;7.842;2022-09-09T16:02:50;20.60;83.20
17697;DHT22;8967;47.984;7.842;2022-09-09T16:05:17;20.50;83.10
17697;DHT22;8967;47.984;7.842;2022-09-09T16:07:44;20.50;83.30
17697;DHT22;8967;47.984;7.842;2022-09-09T16:10:11;20.40;83.30
17697;DHT22;8967;47.984;7.842;2022-09-09T16:12:39;20.40;83.60
17697;DHT22;8967;47.984;7.842;2022-09-09T16:15:08;20.30;83.30
17697;DHT22;8967;47.984;7.842;2022-09-09T16:17:35;20.30;84.70
17697;DHT22;8967;47.984;7.842;2022-09-09T16:20:04;20.20;84.00